Altair — 9LC2000 — position and weather

sailwx.info

Track history (hours):
 
Tides and Currents Weather Stations Pressure Air Temp Water Temp Dewpoint Dewpoint Depression Visibility Wind Speed Wind Dir Waves Ship Positions

Altair

Last reported at 2015-Jul-31 06:21 UTC. Time now 2015-Aug-04 09:48 UTC.
Position N 44°23' E 035°44'.

Length 108 m; draft 2.7 m.

Type: Cargo ship. MMSI: 667021000.

Date/timePositionNaut miles runAvg speedWind from/ knotsBaromVisibWave heightAir tempDewpointWater temp
2015-Jul-31 06:21N 44°23' E 035°44'6 7.4
2015-Jul-31 05:33N 44°19' E 035°37'7 7.3
2015-Jul-31 04:33N 44°15' E 035°29'7 7.2
2015-Jul-31 03:33N 44°10' E 035°21'7 7.1
2015-Jul-31 02:33N 44°06' E 035°13'7 7.2
2015-Jul-31 01:33N 44°02' E 035°05'7 7.4
2015-Jul-31 00:33N 43°57' E 034°57'8 7.5
2015-Jul-30 23:33N 43°53' E 034°48'8 7.7
2015-Jul-30 22:32N 43°48' E 034°39'8 7.9
2015-Jul-30 21:33N 43°43' E 034°31'8 8.0
2015-Jul-30 20:31N 43°39' E 034°21'17 8.3
2015-Jul-30 18:31N 43°31' E 034°01'8 8.4
2015-Jul-30 17:33N 43°28' E 033°51'16 8.0
2015-Jul-30 15:33N 43°20' E 033°32'  
2015-Jul-25 14:15N 37°48' E 025°45'5 6.8
2015-Jul-25 13:32N 37°43' E 025°43'6 6.5
2015-Jul-25 12:33N 37°38' E 025°39'6 6.0
2015-Jul-25 11:34N 37°32' E 025°39'6 5.6
2015-Jul-25 10:33N 37°26' E 025°38'5 5.1
2015-Jul-25 09:33N 37°22' E 025°34'19 6.2
2015-Jul-25 06:26N 37°13' E 025°13'5 5.6
2015-Jul-25 05:33N 37°11' E 025°07'6 6.1
2015-Jul-25 04:29N 37°06' E 025°02'6 6.2
2015-Jul-25 03:29N 37°01' E 024°57'6 6.0
2015-Jul-25 02:33N 36°57' E 024°53'57 6.2
2015-Jul-24 17:16N 36°03' E 024°28'5 7.3
2015-Jul-24 16:31N 35°57' E 024°26'7 7.1
2015-Jul-24 15:33N 35°51' E 024°23'  
Track history (hours):
 
Tides and Currents Weather Stations Pressure Air Temp Water Temp Dewpoint Dewpoint Depression Visibility Wind Speed Wind Dir Waves Ship Positions

Altair

Last reported at 2015-Jul-31 06:21 UTC. Time now 2015-Aug-04 09:48 UTC.
Position N 44°23' E 035°44'.

Length 108 m; draft 2.7 m.

Type: Cargo ship. MMSI: 667021000.

Date/timePositionNaut miles runAvg speedWind from/ knotsBaromVisibWave heightAir tempDewpointWater temp
2015-Jul-31 06:21N 44°23' E 035°44'6 7.4
2015-Jul-31 05:33N 44°19' E 035°37'7 7.3
2015-Jul-31 04:33N 44°15' E 035°29'7 7.2
2015-Jul-31 03:33N 44°10' E 035°21'7 7.1
2015-Jul-31 02:33N 44°06' E 035°13'7 7.2
2015-Jul-31 01:33N 44°02' E 035°05'7 7.4
2015-Jul-31 00:33N 43°57' E 034°57'8 7.5
2015-Jul-30 23:33N 43°53' E 034°48'8 7.7
2015-Jul-30 22:32N 43°48' E 034°39'8 7.9
2015-Jul-30 21:33N 43°43' E 034°31'8 8.0
2015-Jul-30 20:31N 43°39' E 034°21'17 8.3
2015-Jul-30 18:31N 43°31' E 034°01'8 8.4
2015-Jul-30 17:33N 43°28' E 033°51'16 8.0
2015-Jul-30 15:33N 43°20' E 033°32'  
2015-Jul-25 14:15N 37°48' E 025°45'5 6.8
2015-Jul-25 13:32N 37°43' E 025°43'6 6.5
2015-Jul-25 12:33N 37°38' E 025°39'6 6.0
2015-Jul-25 11:34N 37°32' E 025°39'6 5.6
2015-Jul-25 10:33N 37°26' E 025°38'5 5.1
2015-Jul-25 09:33N 37°22' E 025°34'19 6.2
2015-Jul-25 06:26N 37°13' E 025°13'5 5.6
2015-Jul-25 05:33N 37°11' E 025°07'6 6.1
2015-Jul-25 04:29N 37°06' E 025°02'6 6.2
2015-Jul-25 03:29N 37°01' E 024°57'6 6.0
2015-Jul-25 02:33N 36°57' E 024°53'57 6.2
2015-Jul-24 17:16N 36°03' E 024°28'5 7.3
2015-Jul-24 16:31N 35°57' E 024°26'7 7.1
2015-Jul-24 15:33N 35°51' E 024°23'  

Dump ship's entire track history